sensor_id;sensor_type;location;lat;lon;timestamp;pressure;altitude;pressure_sealevel;temperature;humidity
11643;BME280;5877;50.930;6.918;2023-03-26T00:04:12;100245.72;;;10.24;61.71
11643;BME280;5877;50.930;6.918;2023-03-26T00:09:06;100252.44;;;10.38;62.08
11643;BME280;5877;50.930;6.918;2023-03-26T00:13:59;100063.34;;;9.11;61.85
11643;BME280;5877;50.930;6.918;2023-03-26T00:18:53;100208.91;;;10.12;62.14
11643;BME280;5877;50.930;6.918;2023-03-26T00:23:45;100044.28;;;9.04;61.70
11643;BME280;5877;50.930;6.918;2023-03-26T00:28:41;100098.66;;;9.27;62.65
11643;BME280;5877;50.930;6.918;2023-03-26T00:33:33;99928.31;;;8.11;62.89
11643;BME280;5877;50.930;6.918;2023-03-26T00:38:29;99935.13;;;8.12;62.33
11643;BME280;5877;50.930;6.918;2023-03-26T00:43:21;99980.97;;;8.46;62.81
11643;BME280;5877;50.930;6.918;2023-03-26T00:48:15;100228.41;;;9.98;62.72
11643;BME280;5877;50.930;6.918;2023-03-26T00:53:08;100005.91;;;8.49;62.69
11643;BME280;5877;50.930;6.918;2023-03-26T00:58:00;99919.50;;;8.05;63.17
11643;BME280;5877;50.930;6.918;2023-03-26T01:02:52;99966.28;;;8.13;63.04
11643;BME280;5877;50.930;6.918;2023-03-26T01:07:46;100212.03;;;9.59;63.97
11643;BME280;5877;50.930;6.918;2023-03-26T01:12:38;99995.31;;;7.99;64.86
11643;BME280;5877;50.930;6.918;2023-03-26T01:17:30;99756.56;;;6.23;66.03
11643;BME280;5877;50.930;6.918;2023-03-26T01:22:25;99953.94;;;7.13;67.42
11643;BME280;5877;50.930;6.918;2023-03-26T01:27:37;99881.81;;;6.54;67.88
11643;BME280;5877;50.930;6.918;2023-03-26T01:48:01;99842.97;;;6.00;70.81
11643;BME280;5877;50.930;6.918;2023-03-26T01:52:53;99999.13;;;6.87;71.39
11643;BME280;5877;50.930;6.918;2023-03-26T02:08:04;100129.00;;;8.02;71.07
11643;BME280;5877;50.930;6.918;2023-03-26T02:13:00;100067.34;;;7.81;70.68
11643;BME280;5877;50.930;6.918;2023-03-26T02:17:52;100128.69;;;8.30;70.02
11643;BME280;5877;50.930;6.918;2023-03-26T02:22:45;99704.13;;;5.79;69.28
11643;BME280;5877;50.930;6.918;2023-03-26T02:27:41;99754.16;;;6.34;68.70
11643;BME280;5877;50.930;6.918;2023-03-26T02:32:35;99715.13;;;6.08;68.83
11643;BME280;5877;50.930;6.918;2023-03-26T02:37:30;100060.19;;;8.53;68.45
11643;BME280;5877;50.930;6.918;2023-03-26T02:42:32;99584.59;;;5.65;67.69
11643;BME280;5877;50.930;6.918;2023-03-26T02:47:25;99860.13;;;7.63;67.44
11643;BME280;5877;50.930;6.918;2023-03-26T02:52:16;99717.94;;;6.64;67.26
11643;BME280;5877;50.930;6.918;2023-03-26T02:57:11;99921.44;;;8.17;67.38
11643;BME280;5877;50.930;6.918;2023-03-26T03:02:09;99810.56;;;7.56;67.23
11643;BME280;5877;50.930;6.918;2023-03-26T03:07:01;99820.75;;;7.64;67.08
11643;BME280;5877;50.930;6.918;2023-03-26T03:11:53;99985.34;;;8.77;66.55
11643;BME280;5877;50.930;6.918;2023-03-26T03:16:46;99716.03;;;6.84;66.89
11643;BME280;5877;50.930;6.918;2023-03-26T03:21:39;99682.69;;;6.93;66.51
11643;BME280;5877;50.930;6.918;2023-03-26T03:26:32;99764.13;;;7.58;66.36
11643;BME280;5877;50.930;6.918;2023-03-26T03:31:36;99889.56;;;8.33;66.51
11643;BME280;5877;50.930;6.918;2023-03-26T03:36:32;99729.66;;;7.49;67.48
11643;BME280;5877;50.930;6.918;2023-03-26T03:41:30;99778.91;;;7.71;68.17
11643;BME280;5877;50.930;6.918;2023-03-26T03:46:24;99945.44;;;8.82;68.05
11643;BME280;5877;50.930;6.918;2023-03-26T03:51:17;99648.47;;;7.08;69.25
11643;BME280;5877;50.930;6.918;2023-03-26T03:56:12;99758.44;;;7.68;68.54
11643;BME280;5877;50.930;6.918;2023-03-26T04:01:31;99624.59;;;6.79;69.47
11643;BME280;5877;50.930;6.918;2023-03-26T04:06:29;99637.75;;;6.91;70.10
11643;BME280;5877;50.930;6.918;2023-03-26T04:11:21;99818.81;;;8.03;71.03
11643;BME280;5877;50.930;6.918;2023-03-26T04:16:36;99682.13;;;7.16;71.05
11643;BME280;5877;50.930;6.918;2023-03-26T04:21:28;99949.56;;;8.71;71.81
11643;BME280;5877;50.930;6.918;2023-03-26T04:26:24;99582.56;;;6.63;71.36
11643;BME280;5877;50.930;6.918;2023-03-26T04:31:46;99724.44;;;7.49;71.55
11643;BME280;5877;50.930;6.918;2023-03-26T04:36:43;99565.88;;;6.39;72.17
11643;BME280;5877;50.930;6.918;2023-03-26T04:41:38;99648.00;;;6.86;72.40
11643;BME280;5877;50.930;6.918;2023-03-26T04:46:36;99733.22;;;7.55;72.09
11643;BME280;5877;50.930;6.918;2023-03-26T04:51:40;99553.59;;;6.46;72.20
11643;BME280;5877;50.930;6.918;2023-03-26T04:57:00;99395.47;;;5.52;72.59
11643;BME280;5877;50.930;6.918;2023-03-26T05:02:04;99427.13;;;5.80;72.49
11643;BME280;5877;50.930;6.918;2023-03-26T05:07:07;99557.47;;;6.68;72.50
11643;BME280;5877;50.930;6.918;2023-03-26T05:12:08;99514.22;;;6.29;72.23
11643;BME280;5877;50.930;6.918;2023-03-26T05:17:14;99468.97;;;6.24;72.28
11643;BME280;5877;50.930;6.918;2023-03-26T05:22:11;99378.31;;;5.76;71.54
11643;BME280;5877;50.930;6.918;2023-03-26T05:27:20;99470.03;;;6.16;71.91
11643;BME280;5877;50.930;6.918;2023-03-26T05:32:12;99689.25;;;7.77;72.29
11643;BME280;5877;50.930;6.918;2023-03-26T05:37:04;99705.19;;;7.87;72.98
11643;BME280;5877;50.930;6.918;2023-03-26T05:42:19;99648.78;;;7.43;74.13
11643;BME280;5877;50.930;6.918;2023-03-26T05:47:33;99718.34;;;7.99;75.44
11643;BME280;5877;50.930;6.918;2023-03-26T05:52:26;99489.84;;;6.48;77.17
11643;BME280;5877;50.930;6.918;2023-03-26T05:57:38;99476.09;;;6.35;78.57
11643;BME280;5877;50.930;6.918;2023-03-26T06:02:49;99518.72;;;6.47;79.46
11643;BME280;5877;50.930;6.918;2023-03-26T06:07:47;99548.78;;;6.74;79.43
11643;BME280;5877;50.930;6.918;2023-03-26T06:12:42;99497.41;;;6.25;80.37
11643;BME280;5877;50.930;6.918;2023-03-26T06:17:36;99681.81;;;7.56;81.11
11643;BME280;5877;50.930;6.918;2023-03-26T06:22:41;99699.09;;;7.75;80.86
11643;BME280;5877;50.930;6.918;2023-03-26T06:27:42;99439.38;;;6.11;80.69
11643;BME280;5877;50.930;6.918;2023-03-26T06:33:00;99486.16;;;6.31;81.41
11643;BME280;5877;50.930;6.918;2023-03-26T06:37:57;99505.13;;;6.38;82.22
11643;BME280;5877;50.930;6.918;2023-03-26T06:42:49;99489.19;;;6.53;81.69
11643;BME280;5877;50.930;6.918;2023-03-26T06:48:36;99267.34;;;4.94;82.08
11643;BME280;5877;50.930;6.918;2023-03-26T06:53:59;99340.25;;;5.43;83.71
11643;BME280;5877;50.930;6.918;2023-03-26T06:59:26;99393.78;;;6.02;84.13
11643;BME280;5877;50.930;6.918;2023-03-26T07:04:57;99213.56;;;4.49;85.25
11643;BME280;5877;50.930;6.918;2023-03-26T07:10:24;99318.72;;;5.30;85.86
11643;BME280;5877;50.930;6.918;2023-03-26T07:15:32;99185.09;;;4.23;86.57
11643;BME280;5877;50.930;6.918;2023-03-26T07:20:59;99359.56;;;5.61;86.60
11643;BME280;5877;50.930;6.918;2023-03-26T07:25:55;99521.50;;;6.77;87.19
11643;BME280;5877;50.930;6.918;2023-03-26T07:31:09;99310.72;;;5.31;86.30
11643;BME280;5877;50.930;6.918;2023-03-26T07:36:28;99270.00;;;5.18;86.91
11643;BME280;5877;50.930;6.918;2023-03-26T07:42:16;99472.66;;;6.41;87.54
11643;BME280;5877;50.930;6.918;2023-03-26T07:47:35;99415.44;;;5.96;87.90
11643;BME280;5877;50.930;6.918;2023-03-26T07:53:02;99342.19;;;5.54;88.48
11643;BME280;5877;50.930;6.918;2023-03-26T08:10:07;99528.41;;;6.90;90.52
11643;BME280;5877;50.930;6.918;2023-03-26T08:15:43;99650.56;;;7.67;90.48
11643;BME280;5877;50.930;6.918;2023-03-26T08:20:40;99397.94;;;6.10;90.74
11643;BME280;5877;50.930;6.918;2023-03-26T08:30:41;99643.69;;;7.73;90.17
11643;BME280;5877;50.930;6.918;2023-03-26T08:35:32;99443.56;;;6.44;90.32
11643;BME280;5877;50.930;6.918;2023-03-26T09:01:31;99628.50;;;7.81;89.88
11643;BME280;5877;50.930;6.918;2023-03-26T09:06:42;99616.00;;;7.83;90.09
11643;BME280;5877;50.930;6.918;2023-03-26T09:32:37;99565.59;;;7.46;87.55
11643;BME280;5877;50.930;6.918;2023-03-26T10:04:08;99235.56;;;6.34;85.27
11643;BME280;5877;50.930;6.918;2023-03-26T10:35:25;99501.16;;;9.54;79.70
11643;BME280;5877;50.930;6.918;2023-03-26T10:51:17;99472.25;;;9.77;79.08
11643;BME280;5877;50.930;6.918;2023-03-26T11:01:15;99170.00;;;7.91;79.64
11643;BME280;5877;50.930;6.918;2023-03-26T11:06:21;99454.28;;;9.97;80.42
11643;BME280;5877;50.930;6.918;2023-03-26T11:11:22;99452.59;;;10.36;79.09
11643;BME280;5877;50.930;6.918;2023-03-26T11:26:57;99213.88;;;7.77;82.62
11643;BME280;5877;50.930;6.918;2023-03-26T11:32:10;99444.03;;;9.67;83.08
11643;BME280;5877;50.930;6.918;2023-03-26T11:37:34;99266.72;;;8.94;83.90
11643;BME280;5877;50.930;6.918;2023-03-26T11:42:26;99103.63;;;8.03;81.98
11643;BME280;5877;50.930;6.918;2023-03-26T11:47:22;99291.91;;;9.40;81.24
11643;BME280;5877;50.930;6.918;2023-03-26T11:52:15;99244.53;;;8.97;82.40
11643;BME280;5877;50.930;6.918;2023-03-26T11:57:12;99091.63;;;7.91;83.21
11643;BME280;5877;50.930;6.918;2023-03-26T12:12:16;99423.91;;;10.85;81.27
11643;BME280;5877;50.930;6.918;2023-03-26T12:17:12;99223.00;;;9.90;78.54
11643;BME280;5877;50.930;6.918;2023-03-26T12:22:05;99422.25;;;11.45;77.20
11643;BME280;5877;50.930;6.918;2023-03-26T12:27:34;99433.81;;;11.22;74.28
11643;BME280;5877;50.930;6.918;2023-03-26T12:32:30;99360.97;;;10.52;76.09
11643;BME280;5877;50.930;6.918;2023-03-26T12:37:39;99241.75;;;9.82;78.82
11643;BME280;5877;50.930;6.918;2023-03-26T12:42:33;99177.72;;;9.23;76.71
11643;BME280;5877;50.930;6.918;2023-03-26T12:47:46;99125.34;;;8.04;81.68
11643;BME280;5877;50.930;6.918;2023-03-26T13:19:33;99285.44;;;10.54;77.59
11643;BME280;5877;50.930;6.918;2023-03-26T13:24:48;99463.22;;;11.89;77.57
11643;BME280;5877;50.930;6.918;2023-03-26T13:29:47;99471.38;;;11.66;75.46
11643;BME280;5877;50.930;6.918;2023-03-26T13:50:24;99481.13;;;11.05;77.70
11643;BME280;5877;50.930;6.918;2023-03-26T13:55:18;99474.94;;;10.94;77.82
11643;BME280;5877;50.930;6.918;2023-03-26T14:00:23;99490.00;;;11.21;74.70
11643;BME280;5877;50.930;6.918;2023-03-26T14:05:22;99487.25;;;11.32;73.07
11643;BME280;5877;50.930;6.918;2023-03-26T14:10:18;99460.81;;;11.39;70.57
11643;BME280;5877;50.930;6.918;2023-03-26T14:36:51;99208.69;;;9.98;69.32
11643;BME280;5877;50.930;6.918;2023-03-26T14:42:11;99317.97;;;10.74;68.06
11643;BME280;5877;50.930;6.918;2023-03-26T14:52:16;99522.25;;;12.57;64.40
11643;BME280;5877;50.930;6.918;2023-03-26T15:13:52;99401.31;;;11.06;64.58
11643;BME280;5877;50.930;6.918;2023-03-26T15:19:17;99564.34;;;12.03;63.98
11643;BME280;5877;50.930;6.918;2023-03-26T15:30:00;99570.97;;;11.46;64.56
11643;BME280;5877;50.930;6.918;2023-03-26T15:45:44;99595.13;;;11.43;63.84
11643;BME280;5877;50.930;6.918;2023-03-26T16:06:26;99516.88;;;9.42;68.47
11643;BME280;5877;50.930;6.918;2023-03-26T16:11:44;99646.19;;;9.99;68.87
11643;BME280;5877;50.930;6.918;2023-03-26T16:16:54;99495.75;;;9.08;69.30
11643;BME280;5877;50.930;6.918;2023-03-26T16:21:56;99349.69;;;7.77;71.36
11643;BME280;5877;50.930;6.918;2023-03-26T16:27:29;99556.38;;;8.82;72.50
11643;BME280;5877;50.930;6.918;2023-03-26T16:32:27;99670.81;;;9.28;72.76
11643;BME280;5877;50.930;6.918;2023-03-26T16:37:35;99563.25;;;8.41;73.86
11643;BME280;5877;50.930;6.918;2023-03-26T16:42:43;99626.66;;;8.67;72.75
11643;BME280;5877;50.930;6.918;2023-03-26T16:58:03;99292.97;;;6.28;74.08
11643;BME280;5877;50.930;6.918;2023-03-26T17:19:00;99767.25;;;8.53;76.98
11643;BME280;5877;50.930;6.918;2023-03-26T17:24:02;99790.06;;;8.46;77.49
11643;BME280;5877;50.930;6.918;2023-03-26T17:33:51;99467.28;;;6.04;77.23
11643;BME280;5877;50.930;6.918;2023-03-26T17:43:47;99790.09;;;7.78;79.52
11643;BME280;5877;50.930;6.918;2023-03-26T17:48:43;99630.63;;;6.42;80.27
11643;BME280;5877;50.930;6.918;2023-03-26T17:53:39;99859.06;;;7.95;81.15
11643;BME280;5877;50.930;6.918;2023-03-26T17:58:36;99501.97;;;5.47;80.99
11643;BME280;5877;50.930;6.918;2023-03-26T18:03:46;99826.59;;;7.60;80.94
11643;BME280;5877;50.930;6.918;2023-03-26T18:19:13;99615.22;;;5.76;81.88
11643;BME280;5877;50.930;6.918;2023-03-26T18:24:15;99665.25;;;5.84;80.41
11643;BME280;5877;50.930;6.918;2023-03-26T18:29:22;99953.56;;;7.61;78.97
11643;BME280;5877;50.930;6.918;2023-03-26T18:34:15;99961.63;;;7.53;77.22
11643;BME280;5877;50.930;6.918;2023-03-26T18:39:11;99821.84;;;6.54;77.75
11643;BME280;5877;50.930;6.918;2023-03-26T18:44:05;99549.53;;;4.63;76.91
11643;BME280;5877;50.930;6.918;2023-03-26T18:49:02;100001.56;;;7.60;77.25
11643;BME280;5877;50.930;6.918;2023-03-26T18:53:56;99903.59;;;6.93;76.49
11643;BME280;5877;50.930;6.918;2023-03-26T18:58:50;100036.91;;;7.62;77.15
11643;BME280;5877;50.930;6.918;2023-03-26T19:03:42;99707.56;;;5.60;77.69
11643;BME280;5877;50.930;6.918;2023-03-26T19:08:36;99694.75;;;5.52;78.20
11643;BME280;5877;50.930;6.918;2023-03-26T19:13:34;99808.69;;;6.16;78.86
11643;BME280;5877;50.930;6.918;2023-03-26T19:18:27;99905.50;;;6.53;79.18
11643;BME280;5877;50.930;6.918;2023-03-26T19:23:21;99687.75;;;5.13;78.32
11643;BME280;5877;50.930;6.918;2023-03-26T19:28:25;99722.38;;;5.33;78.45
11643;BME280;5877;50.930;6.918;2023-03-26T19:33:19;99747.19;;;5.42;77.86
11643;BME280;5877;50.930;6.918;2023-03-26T19:38:42;100070.94;;;7.36;76.28
11643;BME280;5877;50.930;6.918;2023-03-26T19:43:35;99914.13;;;6.27;75.14
11643;BME280;5877;50.930;6.918;2023-03-26T19:48:32;100041.06;;;7.05;74.58
11643;BME280;5877;50.930;6.918;2023-03-26T19:53:42;99773.00;;;5.31;73.88
11643;BME280;5877;50.930;6.918;2023-03-26T19:58:34;100135.38;;;7.35;72.29
11643;BME280;5877;50.930;6.918;2023-03-26T20:03:29;100158.09;;;7.35;70.17
11643;BME280;5877;50.930;6.918;2023-03-26T20:08:21;99941.53;;;5.96;69.00
11643;BME280;5877;50.930;6.918;2023-03-26T20:13:17;99887.59;;;5.70;67.48
11643;BME280;5877;50.930;6.918;2023-03-26T20:18:10;100182.97;;;7.24;68.22
11643;BME280;5877;50.930;6.918;2023-03-26T20:23:07;100071.75;;;6.57;67.40
11643;BME280;5877;50.930;6.918;2023-03-26T20:28:01;99903.09;;;5.37;67.54
11643;BME280;5877;50.930;6.918;2023-03-26T20:32:53;99935.34;;;5.43;67.41
11643;BME280;5877;50.930;6.918;2023-03-26T20:38:59;99872.41;;;5.06;66.93
11643;BME280;5877;50.930;6.918;2023-03-26T20:45:13;99830.63;;;4.67;65.88
11643;BME280;5877;50.930;6.918;2023-03-26T20:51:20;100205.59;;;6.84;64.17
